(°C)
(°C)
-2°
-2°
-3°
-2°
-1°
-0°
GB
B
B
BGB
BGB
GB
G
(km/saat)
4-15
5-7
7-8
7-10
5-14
5-20
9-19
(mm)
0
0
0
0
0
0
0
(%)
6
0
0
0
0
0
0

Güneşin açısı

/ -21.9°
sun-icon
UV 1
07:38
16:28
Hilal Şişkin (320°)
03:37
14:49

İnnsbruck (LOWI) için METAR

Zaman Koşullar Sıcaklık/
Çiy noktası
Rüzgar Görünürlük Hava Bulutlar Basınç Değiştir Ham
MVFR 1°C / 1°C 280º variable 250º to 320º 4kt 6000m - Few Clouds 2400ft
Broken Clouds 8000ft
1011 - LOWI 010420Z AUTO 28004KT 250V320 6000 FEW024 BKN080 01/01 Q1011
MVFR 1°C / 1°C 320º 4kt 6000m - Few Clouds 2600ft
Broken Clouds 7000ft
1011 - LOWI 010350Z AUTO 32004KT 6000 FEW026 BKN070 01/01 Q1011
MVFR 1°C / 1°C 230º variable 190º to 250º 3kt 7000m - Few Clouds 100ft
Overcast 7000ft
1011 - LOWI 010320Z AUTO 23003KT 190V250 7000 FEW001 OVC070 01/01 Q1011
MVFR 0°C / 0°C variable 1kt 6000m - Few Clouds 100ft
Broken Clouds 8000ft
1012 - LOWI 010250Z AUTO VRB01KT 6000 FEW001 BKN080 00/00 Q1012
IFR 1°C / 0°C variable 2kt 3200m Mist Vertical Visibility of 0ft.
Scattered Clouds 7000ft
1012 - LOWI 010220Z AUTO VRB02KT 3200 BR FEW001 SCT070 01/00 Q1012
VFR 1°C / 0°C variable 2kt >10km - Few Clouds 100ft
Scattered Clouds 7000ft
1012 - LOWI 010150Z AUTO VRB02KT 9999 FEW001 SCT070 01/00 Q1012
MVFR 1°C / 0°C variable 2kt 5000m Mist Vertical Visibility of 0ft.
Scattered Clouds 2600ft
Broken Clouds 11000ft
1012 - LOWI 010120Z AUTO VRB02KT 5000 BR FEW022 SCT026 BKN110 01/00 Q1012
VFR 1°C / 1°C variable 1kt >10km - Few Clouds 2400ft
Scattered Clouds 2600ft
Broken Clouds 7000ft
1013 - LOWI 010050Z AUTO VRB01KT 9999 FEW024 SCT026 BKN070 01/01 Q1013
MVFR 1°C / 1°C variable 1kt >10km - Few Clouds 2200ft
Broken Clouds 2400ft
1013 - LOWI 010020Z AUTO VRB01KT 9999 FEW022 BKN024 01/01 Q1013
MVFR 1°C / 1°C 220º variable 140º to 270º 3kt >10km - Few Clouds 1700ft
Broken Clouds 2400ft
1013 - LOWI 302350Z AUTO 22003KT 140V270 9999 FEW017 BKN024 01/01 Q1013
MVFR 1°C / 1°C variable 2kt >10km - Few Clouds 1700ft
Broken Clouds 2400ft
1014 - LOWI 302320Z AUTO VRB02KT 9999 FEW017 BKN024 01/01 Q1014
MVFR 2°C / 1°C 100º variable 050º to 170º 3kt >10km - Few Clouds 2000ft
Broken Clouds 2200ft
1014 - LOWI 302250Z AUTO 10003KT 050V170 9999 FEW020 BKN022 02/01 Q1014
MVFR 2°C / 1°C 100º variable 060º to 200º 5kt >10km Light Rain 1.00mm precipitation Vertical Visibility of 0ft.
Broken Clouds 2000ft
1014 - LOWI 302220Z AUTO 10005KT 060V200 9999 -RA FEW016 BKN020 02/01 Q1014
MVFR 2°C / 1°C 130º variable 070º to 170º 4kt >10km Light Rain 1.00mm precipitation Vertical Visibility of 0ft.
Broken Clouds 1700ft
1014 - LOWI 302150Z AUTO 13004KT 070V170 9999 -RA FEW014 BKN017 02/01 Q1014
MVFR 1°C / 1°C 120º variable 050º to 170º 4kt >10km Light Drizzle 0.20mm precipitation Vertical Visibility of 0ft.
Broken Clouds 1700ft
1014 - LOWI 302120Z AUTO 12004KT 050V170 9999 -DZ FEW013 BKN017 01/01 Q1014
MVFR 2°C / 1°C variable 2kt >10km Light Rain 1.00mm precipitation Vertical Visibility of 0ft.
Broken Clouds 1600ft
1014 - LOWI 302050Z AUTO VRB02KT 9999 -RA FEW014 BKN016 02/01 Q1014
MVFR 1°C / 1°C variable 2kt >10km Light Rain 1.00mm precipitation Vertical Visibility of 0ft.
Broken Clouds 1700ft
1014 - LOWI 302020Z AUTO VRB02KT 9999 -RA FEW015 BKN017 01/01 Q1014
MVFR 1°C / 1°C 80º variable 040º to 160º 4kt >10km Light Rain 1.00mm precipitation Vertical Visibility of 0ft.
Broken Clouds 1800ft
Broken Clouds 4000ft
1014 Temporary: Broken Clouds 1200ft. LOWI 301950Z 08004KT 040V160 9999 -RA FEW013 BKN018 BKN040 01/01 Q1014 TEMPO BKN012
MVFR 1°C / 1°C 130º variable 060º to 170º 3kt >10km Light Rain 1.00mm precipitation Vertical Visibility of 0ft.
Broken Clouds 1800ft
Broken Clouds 4000ft
1014 Temporary: Broken Clouds 1200ft. LOWI 301920Z 13003KT 060V170 9999 -RA FEW013 BKN018 BKN040 01/01 Q1014 TEMPO BKN012
VFR 1°C / 0°C 130º variable 070º to 170º 3kt >10km Light Rain Light Drizzle 0.20mm precipitation Vertical Visibility of 0ft.
Scattered Clouds 1800ft
Broken Clouds 4000ft
1013 Temporary: Broken Clouds 1200ft. LOWI 301850Z 13003KT 070V170 9999 -RADZ FEW013 SCT018 BKN040 01/00 Q1013 TEMPO BKN012
MVFR 1°C / 0°C variable 2kt >10km Light Rain 1.00mm precipitation Vertical Visibility of 0ft.
Scattered Clouds 1800ft
Broken Clouds 3000ft
1012 Temporary: Broken Clouds 1200ft. LOWI 301820Z VRB02KT 9999 -RA FEW013 SCT018 BKN030 01/00 Q1012 TEMPO BKN012
MVFR 1°C / 0°C variable 3kt 9000m Light Rain 1.00mm precipitation Vertical Visibility of 0ft.
Broken Clouds 1800ft
1012 Temporary: Broken Clouds 1200ft. LOWI 301750Z VRB03KT 9000 -RA FEW014 BKN018 01/00 Q1012 TEMPO BKN012
MVFR 1°C / 0°C variable 2kt >10km Light Rain 1.00mm precipitation Vertical Visibility of 0ft.
Broken Clouds 2000ft
1012 Temporary: Broken Clouds 1200ft. LOWI 301720Z VRB02KT 9999 -RA FEW012 BKN020 01/00 Q1012 TEMPO BKN012
MVFR 0°C / 0°C variable 2kt >10km Light Snow Light Rain 1.00mm precipitation Vertical Visibility of 0ft.
Overcast 1500ft
1013 Temporary: Broken Clouds 1200ft. LOWI 301650Z VRB02KT 9999 -SNRA SCT011 OVC015 00/M00 Q1013 TEMPO BKN012

MVFR

1°C / 1°C

[Daha fazla]
Rüzgar 280º variable 250º to 320º 4kt
Görünürlük 6000m
Hava -
Bulutlar Few Clouds 2400ft
Broken Clouds 8000ft
Basınç 1011
Değiştir -
Ham LOWI 010420Z AUTO 28004KT 250V320 6000 FEW024 BKN080 01/01 Q1011

MVFR

1°C / 1°C

[Daha fazla]
Rüzgar 320º 4kt
Görünürlük 6000m
Hava -
Bulutlar Few Clouds 2600ft
Broken Clouds 7000ft
Basınç 1011
Değiştir -
Ham LOWI 010350Z AUTO 32004KT 6000 FEW026 BKN070 01/01 Q1011

MVFR

1°C / 1°C

[Daha fazla]
Rüzgar 230º variable 190º to 250º 3kt
Görünürlük 7000m
Hava -
Bulutlar Few Clouds 100ft
Overcast 7000ft
Basınç 1011
Değiştir -
Ham LOWI 010320Z AUTO 23003KT 190V250 7000 FEW001 OVC070 01/01 Q1011

MVFR

0°C / 0°C

[Daha fazla]
Rüzgar variable 1kt
Görünürlük 6000m
Hava -
Bulutlar Few Clouds 100ft
Broken Clouds 8000ft
Basınç 1012
Değiştir -
Ham LOWI 010250Z AUTO VRB01KT 6000 FEW001 BKN080 00/00 Q1012

IFR

1°C / 0°C

[Daha fazla]
Rüzgar variable 2kt
Görünürlük 3200m
Hava Mist
Bulutlar Vertical Visibility of 0ft.
Scattered Clouds 7000ft
Basınç 1012
Değiştir -
Ham LOWI 010220Z AUTO VRB02KT 3200 BR FEW001 SCT070 01/00 Q1012

VFR

1°C / 0°C

[Daha fazla]
Rüzgar variable 2kt
Görünürlük >10km
Hava -
Bulutlar Few Clouds 100ft
Scattered Clouds 7000ft
Basınç 1012
Değiştir -
Ham LOWI 010150Z AUTO VRB02KT 9999 FEW001 SCT070 01/00 Q1012

MVFR

1°C / 0°C

[Daha fazla]
Rüzgar variable 2kt
Görünürlük 5000m
Hava Mist
Bulutlar Vertical Visibility of 0ft.
Scattered Clouds 2600ft
Broken Clouds 11000ft
Basınç 1012
Değiştir -
Ham LOWI 010120Z AUTO VRB02KT 5000 BR FEW022 SCT026 BKN110 01/00 Q1012

VFR

1°C / 1°C

[Daha fazla]
Rüzgar variable 1kt
Görünürlük >10km
Hava -
Bulutlar Few Clouds 2400ft
Scattered Clouds 2600ft
Broken Clouds 7000ft
Basınç 1013
Değiştir -
Ham LOWI 010050Z AUTO VRB01KT 9999 FEW024 SCT026 BKN070 01/01 Q1013

MVFR

1°C / 1°C

[Daha fazla]
Rüzgar variable 1kt
Görünürlük >10km
Hava -
Bulutlar Few Clouds 2200ft
Broken Clouds 2400ft
Basınç 1013
Değiştir -
Ham LOWI 010020Z AUTO VRB01KT 9999 FEW022 BKN024 01/01 Q1013

MVFR

1°C / 1°C

[Daha fazla]
Rüzgar 220º variable 140º to 270º 3kt
Görünürlük >10km
Hava -
Bulutlar Few Clouds 1700ft
Broken Clouds 2400ft
Basınç 1013
Değiştir -
Ham LOWI 302350Z AUTO 22003KT 140V270 9999 FEW017 BKN024 01/01 Q1013

MVFR

1°C / 1°C

[Daha fazla]
Rüzgar variable 2kt
Görünürlük >10km
Hava -
Bulutlar Few Clouds 1700ft
Broken Clouds 2400ft
Basınç 1014
Değiştir -
Ham LOWI 302320Z AUTO VRB02KT 9999 FEW017 BKN024 01/01 Q1014

MVFR

2°C / 1°C

[Daha fazla]
Rüzgar 100º variable 050º to 170º 3kt
Görünürlük >10km
Hava -
Bulutlar Few Clouds 2000ft
Broken Clouds 2200ft
Basınç 1014
Değiştir -
Ham LOWI 302250Z AUTO 10003KT 050V170 9999 FEW020 BKN022 02/01 Q1014

MVFR

2°C / 1°C

[Daha fazla]
Rüzgar 100º variable 060º to 200º 5kt
Görünürlük >10km
Hava Light Rain 1.00mm precipitation
Bulutlar Vertical Visibility of 0ft.
Broken Clouds 2000ft
Basınç 1014
Değiştir -
Ham LOWI 302220Z AUTO 10005KT 060V200 9999 -RA FEW016 BKN020 02/01 Q1014

MVFR

2°C / 1°C

[Daha fazla]
Rüzgar 130º variable 070º to 170º 4kt
Görünürlük >10km
Hava Light Rain 1.00mm precipitation
Bulutlar Vertical Visibility of 0ft.
Broken Clouds 1700ft
Basınç 1014
Değiştir -
Ham LOWI 302150Z AUTO 13004KT 070V170 9999 -RA FEW014 BKN017 02/01 Q1014

MVFR

1°C / 1°C

[Daha fazla]
Rüzgar 120º variable 050º to 170º 4kt
Görünürlük >10km
Hava Light Drizzle 0.20mm precipitation
Bulutlar Vertical Visibility of 0ft.
Broken Clouds 1700ft
Basınç 1014
Değiştir -
Ham LOWI 302120Z AUTO 12004KT 050V170 9999 -DZ FEW013 BKN017 01/01 Q1014

MVFR

2°C / 1°C

[Daha fazla]
Rüzgar variable 2kt
Görünürlük >10km
Hava Light Rain 1.00mm precipitation
Bulutlar Vertical Visibility of 0ft.
Broken Clouds 1600ft
Basınç 1014
Değiştir -
Ham LOWI 302050Z AUTO VRB02KT 9999 -RA FEW014 BKN016 02/01 Q1014

MVFR

1°C / 1°C

[Daha fazla]
Rüzgar variable 2kt
Görünürlük >10km
Hava Light Rain 1.00mm precipitation
Bulutlar Vertical Visibility of 0ft.
Broken Clouds 1700ft
Basınç 1014
Değiştir -
Ham LOWI 302020Z AUTO VRB02KT 9999 -RA FEW015 BKN017 01/01 Q1014

MVFR

1°C / 1°C

[Daha fazla]
Rüzgar 80º variable 040º to 160º 4kt
Görünürlük >10km
Hava Light Rain 1.00mm precipitation
Bulutlar Vertical Visibility of 0ft.
Broken Clouds 1800ft
Broken Clouds 4000ft
Basınç 1014
Değiştir Temporary: Broken Clouds 1200ft.
Ham LOWI 301950Z 08004KT 040V160 9999 -RA FEW013 BKN018 BKN040 01/01 Q1014 TEMPO BKN012

MVFR

1°C / 1°C

[Daha fazla]
Rüzgar 130º variable 060º to 170º 3kt
Görünürlük >10km
Hava Light Rain 1.00mm precipitation
Bulutlar Vertical Visibility of 0ft.
Broken Clouds 1800ft
Broken Clouds 4000ft
Basınç 1014
Değiştir Temporary: Broken Clouds 1200ft.
Ham LOWI 301920Z 13003KT 060V170 9999 -RA FEW013 BKN018 BKN040 01/01 Q1014 TEMPO BKN012

VFR

1°C / 0°C

[Daha fazla]
Rüzgar 130º variable 070º to 170º 3kt
Görünürlük >10km
Hava Light Rain Light Drizzle 0.20mm precipitation
Bulutlar Vertical Visibility of 0ft.
Scattered Clouds 1800ft
Broken Clouds 4000ft
Basınç 1013
Değiştir Temporary: Broken Clouds 1200ft.
Ham LOWI 301850Z 13003KT 070V170 9999 -RADZ FEW013 SCT018 BKN040 01/00 Q1013 TEMPO BKN012

MVFR

1°C / 0°C

[Daha fazla]
Rüzgar variable 2kt
Görünürlük >10km
Hava Light Rain 1.00mm precipitation
Bulutlar Vertical Visibility of 0ft.
Scattered Clouds 1800ft
Broken Clouds 3000ft
Basınç 1012
Değiştir Temporary: Broken Clouds 1200ft.
Ham LOWI 301820Z VRB02KT 9999 -RA FEW013 SCT018 BKN030 01/00 Q1012 TEMPO BKN012

MVFR

1°C / 0°C

[Daha fazla]
Rüzgar variable 3kt
Görünürlük 9000m
Hava Light Rain 1.00mm precipitation
Bulutlar Vertical Visibility of 0ft.
Broken Clouds 1800ft
Basınç 1012
Değiştir Temporary: Broken Clouds 1200ft.
Ham LOWI 301750Z VRB03KT 9000 -RA FEW014 BKN018 01/00 Q1012 TEMPO BKN012

MVFR

1°C / 0°C

[Daha fazla]
Rüzgar variable 2kt
Görünürlük >10km
Hava Light Rain 1.00mm precipitation
Bulutlar Vertical Visibility of 0ft.
Broken Clouds 2000ft
Basınç 1012
Değiştir Temporary: Broken Clouds 1200ft.
Ham LOWI 301720Z VRB02KT 9999 -RA FEW012 BKN020 01/00 Q1012 TEMPO BKN012

MVFR

0°C / 0°C

[Daha fazla]
Rüzgar variable 2kt
Görünürlük >10km
Hava Light Snow Light Rain 1.00mm precipitation
Bulutlar Vertical Visibility of 0ft.
Overcast 1500ft
Basınç 1013
Değiştir Temporary: Broken Clouds 1200ft.
Ham LOWI 301650Z VRB02KT 9999 -SNRA SCT011 OVC015 00/M00 Q1013 TEMPO BKN012

İnnsbruck (LOWI) için TAF

From till


Maximum Temperature 7ºC on . Minimum Temperature 1ºC on .
From till Wind 270º 5kt. Visibility 10km or more. Scattered Clouds 1000ft. Broken Clouds 3000ft.
With 40% probability, Temporarly from till Visibility 498.895m. patches Fog . Broken Clouds 500ft.
Temporarly from till Rain .

Ham: TAF LOWI 302315Z 0100/0124 27005KT 9999 SCT010 BKN030 TX07/0114Z TN01/0103Z PROB40 TEMPO 0102/0109 0500 BCFG BKN005 TEMPO 0122/0124 RA

İnnsbruck için şu anki uydu ve yağmur görüntüleri, Avusturya

Konum işaretleyici İnnsbruck üzerine yerleştirilir. [Daha fazla]

Gerçek zamanlı uydu görüntüsü gündüz süresince görülür ışığı gece süresince kızılötesi ışınım ile birleştirir. Gece kızılötesi ışınım sıcaklık farklarını algılayabildiğinden dolayı görüntü karanlık değildir. Ancak düşük bulutları ve sisi yer sıcaklığından ayırmak zordur ve bu nedenle gece boyunca neredeyse görünmez olabilirler. Avrupa için Meteosat uydu görüntüleri gerçek zamanlı olarak her 5 dakikada bir güncellenir. GOES-16/GOES-17 (Kuzey ve Güney Amerika) ve Himawari (Asya) görüntüleri her 10 dakikada bir güncellenir.

Yağış radar ve uydudan tahmin edilir. Uydulardan gece yapılan yağış tahminleri gündüz yapılan tahminlere göre daha az kusursuzdur. Turuncu çarpılar şimşeklerin saptandığı yerleri gösterir (Avrupa üzeri).

Copyright 2021 EUMETSAT / meteoblue. nowcast tarafından sağlanan şimşek verileri.

İnnsbruck için Radar

Çise
Hafif
Orta
Ağır
Çok ağır
Selamlamak

Konum işaretleyicisi İnnsbruck üzerine yerleştirilir. Bu animasyon son saat içerisindeki yağış radarını ve 2h tahminini gösterir. Hafif yağmur veya kar yağışı radar için görünmez olabilir. Yağış şiddeti açık mavi ile koyu mor arasındaki renklerle kodlanmıştır.
Copyright 2021 Deutscher Wetterdienst / meteoblue.